地図

経路データ

SID SEASON NUMBER BASIN SUBBASIN NAME ISO_TIME NATURE LAT LON WMO_WIND WMO_PRES WMO_AGENCY TRACK_TYPE DIST2LAND LANDFALL IFLAG USA_AGENCY USA_ATCF_ID USA_LAT USA_LON USA_RECORD USA_STATUS USA_WIND USA_PRES USA_SSHS USA_R34_NE USA_R34_SE USA_R34_SW USA_R34_NW USA_R50_NE USA_R50_SE USA_R50_SW USA_R50_NW USA_R64_NE USA_R64_SE USA_R64_SW USA_R64_NW USA_POCI USA_ROCI USA_RMW USA_EYE TOKYO_LAT TOKYO_LON TOKYO_GRADE TOKYO_WIND TOKYO_PRES TOKYO_R50_DIR TOKYO_R50_LONG TOKYO_R50_SHORT TOKYO_R30_DIR TOKYO_R30_LONG TOKYO_R30_SHORT TOKYO_LAND CMA_LAT CMA_LON CMA_CAT CMA_WIND CMA_PRES HKO_LAT HKO_LON HKO_CAT HKO_WIND HKO_PRES NEWDELHI_LAT NEWDELHI_LON NEWDELHI_GRADE NEWDELHI_WIND NEWDELHI_PRES NEWDELHI_CI NEWDELHI_DP NEWDELHI_POCI REUNION_LAT REUNION_LON REUNION_TYPE REUNION_WIND REUNION_PRES REUNION_TNUM REUNION_CI REUNION_RMW REUNION_R34_NE REUNION_R34_SE REUNION_R34_SW REUNION_R34_NW REUNION_R50_NE REUNION_R50_SE REUNION_R50_SW REUNION_R50_NW REUNION_R64_NE REUNION_R64_SE REUNION_R64_SW REUNION_R64_NW BOM_LAT BOM_LON BOM_TYPE BOM_WIND BOM_PRES BOM_TNUM BOM_CI BOM_RMW BOM_R34_NE BOM_R34_SE BOM_R34_SW BOM_R34_NW BOM_R50_NE BOM_R50_SE BOM_R50_SW BOM_R50_NW BOM_R64_NE BOM_R64_SE BOM_R64_SW BOM_R64_NW BOM_ROCI BOM_POCI BOM_EYE BOM_POS_METHOD BOM_PRES_METHOD NADI_LAT NADI_LON NADI_CAT NADI_WIND NADI_PRES WELLINGTON_LAT WELLINGTON_LON WELLINGTON_WIND WELLINGTON_PRES DS824_LAT DS824_LON DS824_STAGE DS824_WIND DS824_PRES TD9636_LAT TD9636_LON TD9636_STAGE TD9636_WIND TD9636_PRES TD9635_LAT TD9635_LON TD9635_WIND TD9635_PRES TD9635_ROCI NEUMANN_LAT NEUMANN_LON NEUMANN_CLASS NEUMANN_WIND NEUMANN_PRES MLC_LAT MLC_LON MLC_CLASS MLC_WIND MLC_PRES USA_GUST BOM_GUST BOM_GUST_PER REUNION_GUST REUNION_GUST_PER USA_SEAHGT USA_SEARAD_NE USA_SEARAD_SE USA_SEARAD_SW USA_SEARAD_NW STORM_SPEED STORM_DIR
1928062S17148 1928 16 SP EA NOT_NAMED 1928-03-01 23:00:00 NR -16.6000 148.000 bom main 221 221 ______O_______ -1 -16.6000 148.000 5 346
1928062S17148 1928 16 SP EA NOT_NAMED 1928-03-02 00:00:00 TS -16.5232 147.972 main 225 216 ______P__O____ -1 -16.5348 147.958 -16.5000 148.000 TC 5 334
1928062S17148 1928 16 SP EA NOT_NAMED 1928-03-02 03:00:00 TS -16.3134 147.852 main 227 216 ______P__P____ -1 -16.3391 147.835 -16.2748 147.877 TC 5 331
1928062S17148 1928 16 SP EA NOT_NAMED 1928-03-02 06:00:00 TS -16.1035 147.735 main 216 216 ______P__P____ -1 -16.1427 147.717 -16.0513 147.759 TC 5 333
1928062S17148 1928 16 SP EA NOT_NAMED 1928-03-02 09:00:00 TS -15.8883 147.627 main 219 218 ______P__P____ -1 -15.9454 147.607 -15.8312 147.648 TC 5 335
1928062S17148 1928 16 SP EA NOT_NAMED 1928-03-02 12:00:00 TS -15.6815 147.528 main 218 214 ______P__P____ -1 -15.7467 147.508 -15.6163 147.549 TC 4 337
1928062S17148 1928 16 SP EA NOT_NAMED 1928-03-02 15:00:00 TS -15.4773 147.444 main 214 214 ______P__P____ -1 -15.5462 147.424 -15.4085 147.464 TC 4 340
1928062S17148 1928 16 SP EA NOT_NAMED 1928-03-02 18:00:00 TS -15.2765 147.379 main 214 204 ______P__P____ -1 -15.3435 147.359 -15.2095 147.399 TC 4 345
1928062S17148 1928 16 SP EA NOT_NAMED 1928-03-02 21:00:00 TS -15.0797 147.335 main 205 205 ______P__P____ -1 -15.1384 147.315 -15.0211 147.355 TC 4 349
1928062S17148 1928 16 SP EA NOT_NAMED 1928-03-02 23:00:00 TS -14.9511 147.320 bom main 206 206 ______O__P____ -1 -15.0000 147.300 -14.9022 147.340 TC 4 352
1928062S17148 1928 16 SP EA NOT_NAMED 1928-03-03 00:00:00 TS -14.8877 147.317 main 208 208 ______P__P____ -1 -14.9304 147.297 -14.8450 147.338 TC 4 0
1928062S17148 1928 16 SP EA NOT_NAMED 1928-03-03 03:00:00 TS -14.7035 147.328 main 214 214 ______P__P____ -1 -14.7239 147.307 -14.6832 147.350 TC 4 9
1928062S17148 1928 16 SP EA NOT_NAMED 1928-03-03 06:00:00 TS -14.5339 147.372 main 232 232 ______P__P____ -1 -14.5307 147.350 -14.5372 147.395 TC 3 20
1928062S17148 1928 16 SP EA NOT_NAMED 1928-03-03 09:00:00 TS -14.3859 147.453 main 246 246 ______P__P____ -1 -14.3629 147.429 -14.4089 147.477 TC 3 37
1928062S17148 1928 16 SP EA NOT_NAMED 1928-03-03 12:00:00 TS -14.2664 147.575 main 259 259 ______P__O____ -1 -14.2329 147.550 -14.3000 147.600 TC 3 48
1928062S17148 1928 16 SP EA NOT_NAMED 1928-03-03 13:00:00 TS -14.2342 147.625 bom main 263 263 ______O__P____ -1 -14.2000 147.600 -14.2683 147.650 TC 4 61
1928062S17148 1928 16 SP EA NOT_NAMED 1928-03-03 15:00:00 TS -14.1791 147.738 main 273 273 ______P__P____ -1 -14.1459 147.713 -14.2123 147.764 TC 4 70
1928062S17148 1928 16 SP EA NOT_NAMED 1928-03-03 18:00:00 TS -14.1241 147.938 main 297 297 ______P__P____ -1 -14.1000 147.916 -14.1481 147.960 TC 4 79
1928062S17148 1928 16 SP EA NOT_NAMED 1928-03-03 21:00:00 TS -14.1000 148.160 main 328 328 ______P__P____ -1 -14.0901 148.144 -14.1098 148.176 TC 4 86
1928062S17148 1928 16 SP EA NOT_NAMED 1928-03-03 23:00:00 TS -14.1000 148.313 bom main 338 338 ______O__P____ -1 -14.1000 148.300 -14.1000 148.325 TC 4 91
1928062S17148 1928 16 SP EA NOT_NAMED 1928-03-04 00:00:00 TS -14.1030 148.385 main 348 348 ______P__O____ -1 -14.1060 148.369 -14.1000 148.400 TC 4 97
1928062S17148 1928 16 SP EA NOT_NAMED 1928-03-04 03:00:00 TS -14.1351 148.588 main 369 369 ______P__P____ -1 -14.1465 148.575 -14.1236 148.601 TC 4 103
1928062S17148 1928 16 SP EA NOT_NAMED 1928-03-04 06:00:00 TS -14.1979 148.793 main 385 385 ______P__P____ -1 -14.2153 148.781 -14.1806 148.804 TC 4 111
1928062S17148 1928 16 SP EA NOT_NAMED 1928-03-04 09:00:00 TS -14.2844 148.999 main 403 403 ______P__P____ -1 -14.3054 148.988 -14.2633 149.010 TC 4 115
1928062S17148 1928 16 SP EA NOT_NAMED 1928-03-04 12:00:00 TS -14.3871 149.208 main 420 420 ______P__P____ -1 -14.4098 149.197 -14.3644 149.218 TC 5 118
1928062S17148 1928 16 SP EA NOT_NAMED 1928-03-04 15:00:00 TS -14.4987 149.420 main 434 432 ______P__P____ -1 -14.5213 149.409 -14.4761 149.431 TC 5 118
1928062S17148 1928 16 SP EA NOT_NAMED 1928-03-04 18:00:00 TS -14.6119 149.637 main 441 440 ______P__P____ -1 -14.6329 149.626 -14.5910 149.648 TC 5 117
1928062S17148 1928 16 SP EA NOT_NAMED 1928-03-04 21:00:00 TS -14.7195 149.860 main 449 449 ______P__P____ -1 -14.7376 149.848 -14.7015 149.871 TC 5 115
1928062S17148 1928 16 SP EA NOT_NAMED 1928-03-04 23:00:00 TS -14.7845 150.012 996 bom main 459 459 ______O__P____ -1 -14.8000 150.000 996 4 -14.7690 150.023 TC 5 112
1928062S17148 1928 16 SP EA NOT_NAMED 1928-03-05 00:00:00 TS -14.8093 150.088 main 459 459 ______P__O____ -1 -14.8185 150.077 -14.8000 150.100 TC 35 996 5 104
1928062S17148 1928 16 SP EA NOT_NAMED 1928-03-05 03:00:00 TS -14.8598 150.322 main 470 470 ______P__P____ -1 -14.8674 150.311 -14.8521 150.333 TC 5 101
1928062S17148 1928 16 SP EA NOT_NAMED 1928-03-05 06:00:00 TS -14.9018 150.561 main 470 470 ______P__P____ -1 -14.9082 150.552 -14.8954 150.571 TC 5 99
1928062S17148 1928 16 SP EA NOT_NAMED 1928-03-05 09:00:00 TS -14.9377 150.806 main 472 472 ______P__P____ -1 -14.9433 150.797 -14.9321 150.815 TC 5 98
1928062S17148 1928 16 SP EA NOT_NAMED 1928-03-05 12:00:00 TS -14.9698 151.055 main 487 487 ______P__P____ -1 -14.9750 151.047 -14.9646 151.063 TC 5 97
1928062S17148 1928 16 SP EA NOT_NAMED 1928-03-05 15:00:00 TS -15.0005 151.309 main 491 491 ______P__P____ -1 -15.0056 151.302 -14.9953 151.317 TC 5 97
1928062S17148 1928 16 SP EA NOT_NAMED 1928-03-05 18:00:00 TS -15.0320 151.567 main 498 498 ______P__P____ -1 -15.0375 151.561 -15.0266 151.574 TC 5 98
1928062S17148 1928 16 SP EA NOT_NAMED 1928-03-05 21:00:00 TS -15.0669 151.829 main 515 515 ______P__P____ -1 -15.0731 151.823 -15.0607 151.835 TC 5 98
1928062S17148 1928 16 SP EA NOT_NAMED 1928-03-05 23:00:00 TS -15.0931 152.006 bom main 522 522 ______O__P____ -1 -15.1000 152.000 -15.0862 152.011 TC 5 99
1928062S17148 1928 16 SP EA NOT_NAMED 1928-03-06 00:00:00 TS -15.1083 152.095 main 526 526 ______P__O____ -1 -15.1166 152.090 -15.1000 152.100 TC 5 101
1928062S17148 1928 16 SP EA NOT_NAMED 1928-03-06 03:00:00 TS -15.1593 152.370 main 547 547 ______P__P____ -1 -15.1693 152.366 -15.1494 152.373 TC 5 101
1928062S17148 1928 16 SP EA NOT_NAMED 1928-03-06 06:00:00 TS -15.2142 152.649 main 554 554 ______P__P____ -1 -15.2259 152.645 -15.2025 152.652 TC 6 102
1928062S17148 1928 16 SP EA NOT_NAMED 1928-03-06 09:00:00 TS -15.2727 152.930 main 577 577 ______P__P____ -1 -15.2859 152.927 -15.2594 152.933 TC 6 102
1928062S17148 1928 16 SP EA NOT_NAMED 1928-03-06 12:00:00 TS -15.3345 153.212 main 591 591 ______P__P____ -1 -15.3489 153.209 -15.3201 153.215 TC 6 103
1928062S17148 1928 16 SP EA NOT_NAMED 1928-03-06 15:00:00 TS -15.3996 153.491 main 617 617 ______P__P____ -1 -15.4146 153.487 -15.3845 153.495 TC 6 104
1928062S17148 1928 16 SP EA NOT_NAMED 1928-03-06 18:00:00 TS -15.4676 153.766 main 643 643 ______P__P____ -1 -15.4826 153.761 -15.4526 153.771 TC 5 105
1928062S17148 1928 16 SP EA NOT_NAMED 1928-03-06 21:00:00 TS -15.5385 154.034 main 654 654 ______P__P____ -1 -15.5525 154.028 -15.5244 154.040 TC 5 106
1928062S17148 1928 16 SP EA NOT_NAMED 1928-03-06 23:00:00 TS -15.5872 154.207 bom main 676 676 ______O__P____ -1 -15.6000 154.200 -15.5744 154.214 TC 5 106
1928062S17148 1928 16 SP EA NOT_NAMED 1928-03-07 00:00:00 TS -15.6098 154.292 main 682 682 ______P__O____ -1 -15.6196 154.284 -15.6000 154.300 TC 5 106
1928062S17148 1928 16 SP EA NOT_NAMED 1928-03-07 03:00:00 TS -15.6788 154.540 main 703 703 ______P__P____ -1 -15.6782 154.531 -15.6793 154.549 TC 5 107
1928062S17148 1928 16 SP EA NOT_NAMED 1928-03-07 06:00:00 TS -15.7501 154.780 main 732 732 ______P__P____ -1 -15.7383 154.770 -15.7620 154.789 TC 5 108
1928062S17148 1928 16 SP EA NOT_NAMED 1928-03-07 09:00:00 TS -15.8246 155.011 main 745 745 ______P__P____ -1 -15.8018 155.002 -15.8474 155.020 TC 5 109
1928062S17148 1928 16 SP EA NOT_NAMED 1928-03-07 12:00:00 TS -15.9030 155.236 main 767 767 ______P__P____ -1 -15.8707 155.227 -15.9353 155.244 TC 5 111
1928062S17148 1928 16 SP EA NOT_NAMED 1928-03-07 15:00:00 TS -15.9859 155.455 main 797 797 ______P__P____ -1 -15.9468 155.446 -16.0249 155.463 TC 5 112
1928062S17148 1928 16 SP EA NOT_NAMED 1928-03-07 18:00:00 TS -16.0740 155.668 main 819 819 ______P__P____ -1 -16.0321 155.659 -16.1160 155.678 TC 4 114
1928062S17148 1928 16 SP EA NOT_NAMED 1928-03-07 21:00:00 TS -16.1625 155.876 main 831 826 ______P__P____ -1 -16.1285 155.865 -16.2078 155.889 TC 4 114
1928062S17148 1928 16 SP EA NOT_NAMED 1928-03-07 23:00:00 TS -16.2231 156.010 bom main 826 821 ______O__P____ -1 -16.2000 156.000 -16.2693 156.030 TC 4 115
1928062S17148 1928 16 SP EA NOT_NAMED 1928-03-08 00:00:00 TS -16.2505 156.073 main 830 825 ______P__O____ -1 -16.2381 156.067 -16.3000 156.100 TC 4 120
1928062S17148 1928 16 SP EA NOT_NAMED 1928-03-08 03:00:00 NR -16.3612 156.263 main 830 825 ______P_______ -1 -16.3612 156.263 TC 4 124
1928062S17148 1928 16 SP EA NOT_NAMED 1928-03-08 06:00:00 NR -16.4962 156.455 main 830 830 ______P_______ -1 -16.4962 156.455 TC 5 128
1928062S17148 1928 16 SP EA NOT_NAMED 1928-03-08 09:00:00 NR -16.6415 156.644 main 836 832 ______P_______ -1 -16.6415 156.644 TC 5 130
1928062S17148 1928 16 SP EA NOT_NAMED 1928-03-08 12:00:00 NR -16.7950 156.830 main 848 829 ______P_______ -1 -16.7950 156.830 TC 5 132
1928062S17148 1928 16 SP EA NOT_NAMED 1928-03-08 15:00:00 NR -16.9551 157.014 main 824 800 ______P_______ -1 -16.9551 157.014 TC 5 133
1928062S17148 1928 16 SP EA NOT_NAMED 1928-03-08 18:00:00 NR -17.1199 157.197 main 800 771 ______P_______ -1 -17.1199 157.197 TC 5 134
1928062S17148 1928 16 SP EA NOT_NAMED 1928-03-08 21:00:00 NR -17.2875 157.379 main 771 756 ______P_______ -1 -17.2875 157.379 TC 5 134
1928062S17148 1928 16 SP EA NOT_NAMED 1928-03-08 23:00:00 NR -17.4000 157.500 bom main 756 ______O_______ -1 -17.4000 157.500 TC 5 134

デジタル台風データ・検索

IBTrACS Databaseについて

本データベースは、米国NOAAが公開する1842年以降の世界の熱帯低気圧のベストトラックデータアーカイブInternational Best Track Archive for Climate Stewardship (IBTrACS)を、ウェブで閲覧しやすい形式に変換したものです。

最終更新日:2021-10-27